createdAt,value
2017-12-19T00:02:19.330Z,99362.53
2017-12-19T00:04:48.404Z,99366.56
2017-12-19T00:07:16.781Z,99364.79
2017-12-19T00:09:45.100Z,99362.53
2017-12-19T00:12:13.413Z,99365.16
2017-12-19T00:14:41.767Z,99360.34
2017-12-19T00:17:10.073Z,99361.80
2017-12-19T00:19:38.709Z,99356.67
2017-12-19T00:22:07.076Z,99362.27
2017-12-19T00:24:35.393Z,99366.33
2017-12-19T00:27:03.708Z,99367.97
2017-12-19T00:29:32.094Z,99374.25
2017-12-19T00:32:00.405Z,99373.27
2017-12-19T00:34:29.360Z,99373.00
2017-12-19T00:36:57.737Z,99373.55
2017-12-19T00:39:26.052Z,99383.42
2017-12-19T00:41:54.360Z,99387.39
2017-12-19T00:44:22.693Z,99381.41
2017-12-19T00:46:51.020Z,99386.33
2017-12-19T00:49:19.471Z,99383.20
2017-12-19T00:51:47.780Z,99387.06
2017-12-19T00:54:16.093Z,99385.19
2017-12-19T00:56:46.593Z,99388.72
2017-12-19T00:59:14.903Z,99396.88
2017-12-19T01:01:43.208Z,99381.36
2017-12-19T01:04:12.089Z,99378.55
2017-12-19T01:06:41.021Z,99376.39
2017-12-19T01:09:10.942Z,99385.99
2017-12-19T01:11:39.676Z,99397.67
2017-12-19T01:14:09.268Z,99397.67
2017-12-19T01:16:37.585Z,99393.28
2017-12-19T01:19:06.052Z,99391.44
2017-12-19T01:21:34.368Z,99387.67
2017-12-19T01:24:02.897Z,99390.64
2017-12-19T01:26:31.646Z,99395.80
2017-12-19T01:28:59.951Z,99399.13
2017-12-19T01:31:28.264Z,99399.11
2017-12-19T01:33:56.621Z,99413.38
2017-12-19T01:36:25.688Z,99431.88
2017-12-19T01:38:54.500Z,99435.07
2017-12-19T01:41:22.861Z,99430.10
2017-12-19T01:43:51.165Z,99428.64
2017-12-19T01:46:19.479Z,99436.36
2017-12-19T01:48:47.839Z,99442.77
2017-12-19T01:51:16.164Z,99449.50
2017-12-19T01:53:44.476Z,99444.20
2017-12-19T01:56:13.600Z,99446.92
2017-12-19T01:58:41.917Z,99457.02
2017-12-19T02:01:10.216Z,99462.17
2017-12-19T02:03:39.352Z,99469.08
2017-12-19T02:06:07.660Z,99470.80
2017-12-19T02:08:36.103Z,99474.02
2017-12-19T02:11:04.497Z,99471.12
2017-12-19T02:13:32.813Z,99464.56
2017-12-19T02:16:01.144Z,99453.48
2017-12-19T02:18:29.521Z,99446.55
2017-12-19T02:20:57.844Z,99446.55
2017-12-19T02:23:26.158Z,99458.56
2017-12-19T02:25:55.840Z,99457.84
2017-12-19T02:28:26.425Z,99442.47
2017-12-19T02:30:54.792Z,99426.70
2017-12-19T02:33:23.237Z,99430.56
2017-12-19T02:35:51.628Z,99427.44
2017-12-19T02:38:20.225Z,99419.81
2017-12-19T02:40:48.668Z,99412.73
2017-12-19T02:43:22.544Z,99431.22
2017-12-19T02:45:52.580Z,99444.41
2017-12-19T02:48:20.908Z,99447.95
2017-12-19T02:50:49.272Z,99455.52
2017-12-19T02:53:17.852Z,99467.27
2017-12-19T02:55:47.020Z,99478.25
2017-12-19T02:58:16.904Z,99481.81
2017-12-19T03:00:45.220Z,99485.98
2017-12-19T03:03:14.725Z,99493.88
2017-12-19T03:05:43.077Z,99488.11
2017-12-19T03:08:11.390Z,99489.38
2017-12-19T03:10:39.760Z,99494.86
2017-12-19T03:13:08.112Z,99492.78
2017-12-19T03:15:36.428Z,99493.61
2017-12-19T03:18:05.413Z,99483.34
2017-12-19T03:20:33.726Z,99483.14
2017-12-19T03:23:02.058Z,99496.70
2017-12-19T03:25:30.424Z,99490.73
2017-12-19T03:27:58.741Z,99505.84
2017-12-19T03:30:27.060Z,99505.09
2017-12-19T03:32:55.449Z,99510.12
2017-12-19T03:35:23.756Z,99514.34
2017-12-19T03:37:52.549Z,99517.77
2017-12-19T03:40:20.982Z,99506.75
2017-12-19T03:42:49.291Z,99518.59
2017-12-19T03:45:18.004Z,99522.53
2017-12-19T03:47:46.539Z,99507.61
2017-12-19T03:50:14.848Z,99511.42
2017-12-19T03:52:43.165Z,99503.63
2017-12-19T03:55:12.177Z,99500.92
2017-12-19T03:57:40.480Z,99511.64
2017-12-19T04:00:08.811Z,99505.00
2017-12-19T04:02:37.670Z,99507.80
2017-12-19T04:05:06.012Z,99519.09
2017-12-19T04:07:35.043Z,99508.06
2017-12-19T04:10:03.412Z,99508.11
2017-12-19T04:12:31.723Z,99513.33
2017-12-19T04:15:00.052Z,99522.45
2017-12-19T04:17:28.420Z,99525.69
2017-12-19T04:19:56.735Z,99534.09
2017-12-19T04:22:25.811Z,99529.72
2017-12-19T04:24:54.150Z,99520.48
2017-12-19T04:27:22.622Z,99531.48
2017-12-19T04:29:51.964Z,99537.70
2017-12-19T04:32:20.934Z,99536.27
2017-12-19T04:34:49.316Z,99538.42
2017-12-19T04:37:17.679Z,99529.59
2017-12-19T04:39:46.000Z,99525.88
2017-12-19T04:42:14.316Z,99526.13
2017-12-19T04:44:42.687Z,99527.13
2017-12-19T04:47:10.997Z,99524.67
2017-12-19T04:49:39.312Z,99510.87
2017-12-19T04:52:07.689Z,99512.02
2017-12-19T04:54:36.008Z,99534.69
2017-12-19T04:57:04.388Z,99537.84
2017-12-19T04:59:32.748Z,99536.32
2017-12-19T05:02:01.078Z,99523.84
2017-12-19T05:04:29.487Z,99532.95
2017-12-19T05:06:57.625Z,99540.41
2017-12-19T05:09:26.036Z,99542.86
2017-12-19T05:11:54.348Z,99541.39
2017-12-19T05:14:22.723Z,99537.17
2017-12-19T05:16:51.142Z,99534.16
2017-12-19T05:19:19.772Z,99544.03
2017-12-19T05:21:48.131Z,99567.70
2017-12-19T05:24:16.444Z,99574.24
2017-12-19T05:26:45.516Z,99569.73
2017-12-19T05:29:14.255Z,99576.25
2017-12-19T05:31:42.571Z,99581.11
2017-12-19T05:34:10.889Z,99587.25
2017-12-19T05:36:39.798Z,99594.25
2017-12-19T05:39:08.116Z,99604.67
2017-12-19T05:41:37.118Z,99598.69
2017-12-19T05:44:05.569Z,99604.08
2017-12-19T05:46:33.880Z,99607.56
2017-12-19T05:49:02.192Z,99625.28
2017-12-19T05:51:30.636Z,99619.13
2017-12-19T05:53:58.959Z,99618.80
2017-12-19T05:56:27.269Z,99613.96
2017-12-19T05:58:55.636Z,99628.31
2017-12-19T06:01:23.948Z,99633.81
2017-12-19T06:03:52.019Z,99635.85
2017-12-19T06:06:20.379Z,99644.35
2017-12-19T06:08:49.040Z,99651.22
2017-12-19T06:11:17.880Z,99649.15
2017-12-19T06:13:46.244Z,99646.15
2017-12-19T06:16:14.642Z,99650.46
2017-12-19T06:18:43.627Z,99655.43
2017-12-19T06:21:11.944Z,99662.36
2017-12-19T06:23:40.323Z,99668.78
2017-12-19T06:26:08.641Z,99669.45
2017-12-19T06:28:37.556Z,99671.97
2017-12-19T06:31:06.015Z,99674.93
2017-12-19T06:33:34.820Z,99677.29
2017-12-19T06:36:03.140Z,99683.55
2017-12-19T06:38:31.492Z,99687.67
2017-12-19T06:40:59.814Z,99687.84
2017-12-19T06:43:28.129Z,99680.26
2017-12-19T06:45:56.595Z,99680.72
2017-12-19T06:48:24.912Z,99673.55
2017-12-19T06:50:53.349Z,99685.78
2017-12-19T06:53:21.697Z,99685.94
2017-12-19T06:55:50.008Z,99698.44
2017-12-19T06:58:18.331Z,99694.84
2017-12-19T07:00:46.708Z,99697.25
2017-12-19T07:03:15.025Z,99704.63
2017-12-19T07:05:43.351Z,99719.45
2017-12-19T07:08:12.182Z,99712.31
2017-12-19T07:10:40.708Z,99698.81
2017-12-19T07:13:09.020Z,99701.25
2017-12-19T07:15:37.385Z,99702.44
2017-12-19T07:18:05.705Z,99712.20
2017-12-19T07:20:34.496Z,99706.81
2017-12-19T07:23:02.948Z,99708.03
2017-12-19T07:25:31.262Z,99705.81
2017-12-19T07:28:00.290Z,99705.52
2017-12-19T07:30:28.644Z,99709.52
2017-12-19T07:32:56.960Z,99715.17
2017-12-19T07:35:25.172Z,99724.05
2017-12-19T07:37:53.800Z,99714.30
2017-12-19T07:40:22.285Z,99711.34
2017-12-19T07:42:50.616Z,99714.76
2017-12-19T07:45:18.976Z,99723.88
2017-12-19T07:47:47.288Z,99730.59
2017-12-19T07:50:16.016Z,99731.75
2017-12-19T07:52:45.451Z,99739.20
2017-12-19T07:55:13.756Z,99737.10
2017-12-19T07:57:42.069Z,99746.61
2017-12-19T08:00:10.441Z,99746.70
2017-12-19T08:02:38.976Z,99761.92
2017-12-19T08:05:07.304Z,99757.93
2017-12-19T08:07:35.664Z,99750.30
2017-12-19T08:10:03.981Z,99745.52
2017-12-19T08:12:33.055Z,99745.25
2017-12-19T08:15:03.377Z,99740.55
2017-12-19T08:17:31.701Z,99747.00
2017-12-19T08:20:00.008Z,99751.96
2017-12-19T08:22:29.341Z,99755.02
2017-12-19T08:24:58.416Z,99759.74
2017-12-19T08:27:27.508Z,99757.23
2017-12-19T08:29:55.881Z,99771.02
2017-12-19T08:32:24.211Z,99761.23
2017-12-19T08:34:52.546Z,99760.81
2017-12-19T08:37:20.896Z,99752.46
2017-12-19T08:39:50.436Z,99751.95
2017-12-19T08:42:18.745Z,99767.74
2017-12-19T08:44:47.083Z,99770.22
2017-12-19T08:47:15.563Z,99773.03
2017-12-19T08:49:43.872Z,99782.63
2017-12-19T08:52:12.232Z,99799.48
2017-12-19T08:54:40.541Z,99802.09
2017-12-19T08:57:09.499Z,99804.39
2017-12-19T08:59:37.848Z,99802.49
2017-12-19T09:02:06.157Z,99790.98
2017-12-19T09:04:34.471Z,99797.72
2017-12-19T09:07:03.751Z,99794.70
2017-12-19T09:09:33.218Z,99790.20
2017-12-19T09:12:01.533Z,99795.91
2017-12-19T09:14:30.316Z,99822.22
2017-12-19T09:16:58.623Z,99838.78
2017-12-19T09:19:26.937Z,99835.81
2017-12-19T09:21:55.293Z,99845.48
2017-12-19T09:24:24.728Z,99833.34
2017-12-19T09:26:53.031Z,99827.48
2017-12-19T09:29:21.392Z,99820.92
2017-12-19T09:31:49.704Z,99817.18
2017-12-19T09:34:18.024Z,99816.17
2017-12-19T09:36:46.688Z,99809.17
2017-12-19T09:39:14.992Z,99816.90
2017-12-19T09:41:43.056Z,99817.32
2017-12-19T09:44:11.421Z,99814.55
2017-12-19T09:46:39.720Z,99822.31
2017-12-19T09:49:08.035Z,99831.90
2017-12-19T09:51:36.400Z,99841.59
2017-12-19T09:54:04.780Z,99844.83
2017-12-19T09:56:33.116Z,99831.14
2017-12-19T09:59:01.695Z,99845.86
2017-12-19T10:01:30.000Z,99859.11
2017-12-19T10:03:58.894Z,99860.39
2017-12-19T10:06:27.260Z,99878.30
2017-12-19T10:08:55.563Z,99871.37
2017-12-19T10:11:23.876Z,99846.84
2017-12-19T10:13:52.204Z,99865.83
2017-12-19T10:16:21.221Z,99869.42
2017-12-19T10:18:50.404Z,99865.19
2017-12-19T10:21:18.707Z,99854.82
2017-12-19T10:23:47.780Z,99837.59
2017-12-19T10:26:16.912Z,99835.70
2017-12-19T10:28:45.225Z,99831.19
2017-12-19T10:31:13.580Z,99826.16
2017-12-19T10:33:41.919Z,99836.07
2017-12-19T10:36:11.019Z,99829.56
2017-12-19T10:38:39.333Z,99810.02
2017-12-19T10:41:07.700Z,99819.95
2017-12-19T10:43:36.013Z,99819.79
2017-12-19T10:46:04.521Z,99812.00
2017-12-19T10:48:32.883Z,99823.28
2017-12-19T10:51:01.200Z,99828.41
2017-12-19T10:53:29.508Z,99830.12
2017-12-19T10:55:58.037Z,99826.55
2017-12-19T10:58:26.349Z,99825.86
2017-12-19T11:00:54.700Z,99829.27
2017-12-19T11:03:23.263Z,99827.28
2017-12-19T11:05:51.648Z,99824.95
2017-12-19T11:08:19.953Z,99819.45
2017-12-19T11:10:48.315Z,99813.04
2017-12-19T11:13:16.623Z,99818.61
2017-12-19T11:15:44.931Z,99817.41
2017-12-19T11:18:13.448Z,99833.05
2017-12-19T11:20:43.268Z,99849.05
2017-12-19T11:23:12.338Z,99852.05
2017-12-19T11:25:40.720Z,99847.53
2017-12-19T11:28:09.036Z,99843.76
2017-12-19T11:30:37.824Z,99849.92
2017-12-19T11:33:06.888Z,99843.65
2017-12-19T11:35:35.195Z,99848.75
2017-12-19T11:38:03.512Z,99860.33
2017-12-19T11:40:32.196Z,99862.84
2017-12-19T11:43:00.787Z,99852.11
2017-12-19T11:45:29.101Z,99845.81
2017-12-19T11:47:57.451Z,99845.88
2017-12-19T11:50:25.763Z,99846.85
2017-12-19T11:52:54.209Z,99840.25
2017-12-19T11:55:22.576Z,99834.11
2017-12-19T11:57:50.891Z,99831.31
2017-12-19T12:00:19.197Z,99833.22
2017-12-19T12:02:47.552Z,99835.94
2017-12-19T12:05:16.427Z,99829.07
2017-12-19T12:07:44.732Z,99814.09
2017-12-19T12:10:13.094Z,99821.86
2017-12-19T12:12:42.093Z,99834.08
2017-12-19T12:15:10.409Z,99803.84
2017-12-19T12:17:38.755Z,99798.36
2017-12-19T12:20:07.832Z,99812.35
2017-12-19T12:22:36.137Z,99795.32
2017-12-19T12:25:04.510Z,99804.91
2017-12-19T12:27:32.815Z,99809.52
2017-12-19T12:30:01.124Z,99814.47
2017-12-19T12:32:29.464Z,99813.13
2017-12-19T12:34:57.812Z,99814.74
2017-12-19T12:37:26.133Z,99814.83
2017-12-19T12:39:54.800Z,99806.92
2017-12-19T12:42:23.104Z,99783.09
2017-12-19T12:44:51.186Z,99820.64
2017-12-19T12:47:19.535Z,99829.44
2017-12-19T12:49:47.844Z,99793.03
2017-12-19T12:52:16.150Z,99776.84
2017-12-19T12:54:44.538Z,99798.47
2017-12-19T12:57:13.612Z,99800.50
2017-12-19T12:59:41.931Z,99808.11
2017-12-19T13:02:10.299Z,99812.55
2017-12-19T13:04:38.613Z,99810.00
2017-12-19T13:07:06.924Z,99793.30
2017-12-19T13:09:36.292Z,99800.30
2017-12-19T13:12:04.816Z,99811.10
2017-12-19T13:14:33.124Z,99808.65
2017-12-19T13:17:01.494Z,99807.27
2017-12-19T13:19:30.623Z,99804.23
2017-12-19T13:21:58.952Z,99799.97
2017-12-19T13:24:27.271Z,99799.91
2017-12-19T13:26:56.108Z,99799.25
2017-12-19T13:29:24.620Z,99797.00
2017-12-19T13:31:52.926Z,99814.37
2017-12-19T13:34:21.291Z,99809.11
2017-12-19T13:36:49.595Z,99804.14
2017-12-19T13:39:18.418Z,99819.47
2017-12-19T13:41:46.823Z,99827.22
2017-12-19T13:44:16.549Z,99826.95
2017-12-19T13:46:44.899Z,99836.27
2017-12-19T13:49:14.092Z,99841.81
2017-12-19T13:51:42.579Z,99844.96
2017-12-19T13:54:10.892Z,99850.32
2017-12-19T13:56:39.732Z,99845.36
2017-12-19T13:59:08.035Z,99850.33
2017-12-19T14:01:36.344Z,99859.36
2017-12-19T14:04:04.756Z,99860.18
2017-12-19T14:06:33.096Z,99860.02
2017-12-19T14:09:01.405Z,99874.13
2017-12-19T14:11:29.751Z,99875.09
2017-12-19T14:13:58.056Z,99867.78
2017-12-19T14:16:26.425Z,99861.13
2017-12-19T14:18:54.745Z,99871.72
2017-12-19T14:21:24.484Z,99866.26
2017-12-19T14:23:52.787Z,99865.30
2017-12-19T14:26:21.164Z,99865.88
2017-12-19T14:28:49.468Z,99867.38
2017-12-19T14:31:17.776Z,99865.99
2017-12-19T14:33:47.372Z,99852.58
2017-12-19T14:36:15.853Z,99851.94
2017-12-19T14:38:44.190Z,99853.97
2017-12-19T14:41:12.544Z,99848.20
2017-12-19T14:43:41.612Z,99824.22
2017-12-19T14:46:10.687Z,99835.27
2017-12-19T14:48:39.049Z,99851.52
2017-12-19T14:51:07.504Z,99873.56
2017-12-19T14:53:36.056Z,99859.11
2017-12-19T14:56:04.401Z,99839.31
2017-12-19T14:58:32.771Z,99854.91
2017-12-19T15:01:01.916Z,99859.45
2017-12-19T15:03:30.252Z,99853.42
2017-12-19T15:05:58.623Z,99851.09
2017-12-19T15:08:27.320Z,99860.83
2017-12-19T15:10:55.837Z,99860.20
2017-12-19T15:13:24.156Z,99869.95
2017-12-19T15:15:52.459Z,99867.22
2017-12-19T15:18:20.799Z,99859.80
2017-12-19T15:20:49.107Z,99876.91
2017-12-19T15:23:18.060Z,99892.43
2017-12-19T15:25:46.406Z,99877.92
2017-12-19T15:28:15.490Z,99845.73
2017-12-19T15:30:44.761Z,99829.58
2017-12-19T15:33:13.752Z,99814.72
2017-12-19T15:35:42.570Z,99818.23
2017-12-19T15:38:10.880Z,99828.02
2017-12-19T15:40:39.832Z,99829.14
2017-12-19T15:43:08.145Z,99824.50
2017-12-19T15:45:36.498Z,99825.68
2017-12-19T15:48:05.624Z,99838.11
2017-12-19T15:50:33.941Z,99843.33
2017-12-19T15:53:02.256Z,99847.13
2017-12-19T15:55:30.832Z,99850.56
2017-12-19T15:57:59.912Z,99837.59
2017-12-19T16:00:28.362Z,99848.13
2017-12-19T16:02:56.728Z,99857.81
2017-12-19T16:05:25.075Z,99859.13
2017-12-19T16:07:53.436Z,99872.81
2017-12-19T16:10:22.387Z,99880.44
2017-12-19T16:12:51.178Z,99886.17
2017-12-19T16:15:19.496Z,99877.09
2017-12-19T16:17:48.539Z,99864.99
2017-12-19T16:20:17.013Z,99855.35
2017-12-19T16:22:45.868Z,99840.04
2017-12-19T16:25:15.212Z,99850.45
2017-12-19T16:27:43.583Z,99863.61
2017-12-19T16:30:11.892Z,99864.55
2017-12-19T16:32:40.204Z,99870.63
2017-12-19T16:35:08.653Z,99856.83
2017-12-19T16:37:36.972Z,99852.40
2017-12-19T16:40:05.282Z,99852.88
2017-12-19T16:42:34.063Z,99858.69
2017-12-19T16:45:03.829Z,99862.23
2017-12-19T16:47:32.227Z,99867.76
2017-12-19T16:50:01.074Z,99866.09
2017-12-19T16:52:29.558Z,99869.22
2017-12-19T16:54:57.863Z,99869.63
2017-12-19T16:57:26.216Z,99872.09
2017-12-19T16:59:54.521Z,99864.87
2017-12-19T17:02:22.831Z,99870.18
2017-12-19T17:04:51.209Z,99873.39
2017-12-19T17:07:19.573Z,99879.51
2017-12-19T17:09:47.887Z,99871.30
2017-12-19T17:12:16.512Z,99873.59
2017-12-19T17:14:44.823Z,99881.77
2017-12-19T17:17:13.143Z,99879.05
2017-12-19T17:19:41.720Z,99882.87
2017-12-19T17:22:10.631Z,99876.95
2017-12-19T17:24:38.961Z,99882.64
2017-12-19T17:27:07.751Z,99885.43
2017-12-19T17:29:36.288Z,99886.80
2017-12-19T17:32:04.611Z,99881.57
2017-12-19T17:34:33.667Z,99886.29
2017-12-19T17:37:02.755Z,99887.88
2017-12-19T17:39:31.414Z,99884.80
2017-12-19T17:42:01.792Z,99883.43
2017-12-19T17:44:31.624Z,99879.20
2017-12-19T17:47:00.608Z,99885.34
2017-12-19T17:49:28.977Z,99885.05
2017-12-19T17:51:57.354Z,99880.98
2017-12-19T17:54:26.148Z,99885.36
2017-12-19T17:56:54.460Z,99884.05
2017-12-19T17:59:22.875Z,99882.19
2017-12-19T18:01:52.095Z,99885.05
2017-12-19T18:04:20.407Z,99890.24
2017-12-19T18:06:48.859Z,99887.16
2017-12-19T18:09:17.948Z,99884.45
2017-12-19T18:11:46.310Z,99879.69
2017-12-19T18:14:14.692Z,99876.50
2017-12-19T18:16:43.521Z,99877.89
2017-12-19T18:19:12.506Z,99881.41
2017-12-19T18:21:41.475Z,99878.66
2017-12-19T18:24:10.531Z,99888.55
2017-12-19T18:26:38.935Z,99885.94
2017-12-19T18:29:07.262Z,99890.00
2017-12-19T18:31:36.238Z,99886.98
2017-12-19T18:34:04.809Z,99897.47
2017-12-19T18:36:33.717Z,99898.34
2017-12-19T18:39:02.032Z,99895.45
2017-12-19T18:41:30.454Z,99896.66
2017-12-19T18:43:59.337Z,99892.85
2017-12-19T18:46:28.443Z,99893.03
2017-12-19T18:48:57.489Z,99896.73
2017-12-19T18:51:25.883Z,99898.10
2017-12-19T18:53:55.116Z,99899.19
2017-12-19T18:56:24.274Z,99902.69
2017-12-19T18:58:52.588Z,99900.40
2017-12-19T19:01:21.753Z,99897.36
2017-12-19T19:03:50.134Z,99900.68
2017-12-19T19:06:18.501Z,99903.69
2017-12-19T19:08:48.151Z,99901.24
2017-12-19T19:11:16.462Z,99903.75
2017-12-19T19:13:44.815Z,99911.39
2017-12-19T19:16:13.503Z,99915.47
2017-12-19T19:18:41.854Z,99908.77
2017-12-19T19:21:10.159Z,99902.94
2017-12-19T19:23:39.389Z,99900.69
2017-12-19T19:26:07.756Z,99899.61
2017-12-19T19:28:37.003Z,99903.98
2017-12-19T19:31:06.121Z,99905.02
2017-12-19T19:33:35.626Z,99903.84
2017-12-19T19:36:04.034Z,99909.96
2017-12-19T19:38:32.451Z,99911.75
2017-12-19T19:41:01.026Z,99912.61
2017-12-19T19:43:29.368Z,99923.00
2017-12-19T19:45:57.832Z,99915.70
2017-12-19T19:48:26.857Z,99920.73
2017-12-19T19:50:56.153Z,99913.16
2017-12-19T19:53:25.629Z,99916.70
2017-12-19T19:55:54.560Z,99909.75
2017-12-19T19:58:22.943Z,99913.67
2017-12-19T20:00:52.067Z,99917.97
2017-12-19T20:03:20.645Z,99915.63
2017-12-19T20:05:49.183Z,99925.89
2017-12-19T20:08:18.274Z,99926.09
2017-12-19T20:10:46.905Z,99920.54
2017-12-19T20:13:15.359Z,99922.20
2017-12-19T20:15:44.596Z,99924.84
2017-12-19T20:18:13.002Z,99923.06
2017-12-19T20:20:42.395Z,99928.06
2017-12-19T20:23:10.712Z,99922.61
2017-12-19T20:25:39.068Z,99928.28
2017-12-19T20:28:07.444Z,99932.53
2017-12-19T20:30:36.262Z,99929.56
2017-12-19T20:33:04.577Z,99925.77
2017-12-19T20:35:33.187Z,99926.47
2017-12-19T20:38:02.310Z,99930.15
2017-12-19T20:40:30.969Z,99923.95
2017-12-19T20:43:00.831Z,99932.96
2017-12-19T20:45:29.284Z,99927.25
2017-12-19T20:47:58.343Z,99927.46
2017-12-19T20:50:27.471Z,99928.56
2017-12-19T20:52:55.832Z,99918.36
2017-12-19T20:55:24.912Z,99917.76
2017-12-19T20:57:55.396Z,99913.71
2017-12-19T21:00:23.760Z,99907.71
2017-12-19T21:02:52.124Z,99912.56
2017-12-19T21:05:20.590Z,99914.55
2017-12-19T21:07:49.999Z,99909.06
2017-12-19T21:10:19.118Z,99902.00
2017-12-19T21:12:48.207Z,99905.98
2017-12-19T21:15:16.702Z,99901.20
2017-12-19T21:17:46.426Z,99899.16
2017-12-19T21:20:14.963Z,99893.89
2017-12-19T21:22:43.326Z,99897.84
2017-12-19T21:25:11.747Z,99894.94
2017-12-19T21:27:40.835Z,99885.09
2017-12-19T21:30:09.742Z,99888.11
2017-12-19T21:32:38.165Z,99894.45
2017-12-19T21:35:07.551Z,99897.47
2017-12-19T21:37:36.027Z,99890.14
2017-12-19T21:40:04.465Z,99882.35
2017-12-19T21:42:33.441Z,99878.70
2017-12-19T21:45:02.503Z,99891.42
2017-12-19T21:47:31.239Z,99898.33
2017-12-19T21:50:01.291Z,99894.11
2017-12-19T21:52:29.640Z,99888.73
2017-12-19T21:54:57.997Z,99888.30
2017-12-19T21:57:26.450Z,99894.71
2017-12-19T21:59:54.820Z,99898.75
2017-12-19T22:02:23.185Z,99895.66
2017-12-19T22:04:51.621Z,99894.76
2017-12-19T22:07:20.771Z,99894.01
2017-12-19T22:09:49.743Z,99898.80
2017-12-19T22:12:18.491Z,99896.61
2017-12-19T22:14:47.876Z,99881.41
2017-12-19T22:17:16.306Z,99887.98
2017-12-19T22:19:45.643Z,99884.83
2017-12-19T22:22:15.307Z,99881.15
2017-12-19T22:24:44.366Z,99882.42
2017-12-19T22:27:12.959Z,99886.39
2017-12-19T22:29:41.607Z,99886.69
2017-12-19T22:32:10.651Z,99888.71
2017-12-19T22:34:39.907Z,99892.61
2017-12-19T22:37:09.184Z,99883.06
2017-12-19T22:39:37.905Z,99881.75
2017-12-19T22:42:06.601Z,99887.41
2017-12-19T22:44:35.514Z,99888.81
2017-12-19T22:47:04.651Z,99885.30
2017-12-19T22:49:33.136Z,99887.27
2017-12-19T22:52:01.471Z,99888.18
2017-12-19T22:54:29.839Z,99884.76
2017-12-19T22:56:59.032Z,99872.37
2017-12-19T22:59:27.388Z,99872.15
2017-12-19T23:01:55.742Z,99882.28
2017-12-19T23:04:24.810Z,99879.19
2017-12-19T23:06:53.131Z,99877.93
2017-12-19T23:09:21.491Z,99879.14
2017-12-19T23:11:49.919Z,99883.91
2017-12-19T23:14:18.546Z,99883.37
2017-12-19T23:16:46.939Z,99890.02
2017-12-19T23:19:15.311Z,99889.01
2017-12-19T23:21:44.975Z,99894.09
2017-12-19T23:24:13.277Z,99895.19
2017-12-19T23:26:42.966Z,99895.02
2017-12-19T23:29:13.260Z,99888.45
2017-12-19T23:31:42.377Z,99893.36
2017-12-19T23:34:10.769Z,99892.50
2017-12-19T23:36:39.085Z,99891.38
2017-12-19T23:39:07.444Z,99893.48
2017-12-19T23:41:36.615Z,99887.13
2017-12-19T23:44:05.607Z,99884.98
2017-12-19T23:46:33.957Z,99888.08
2017-12-19T23:49:02.264Z,99876.86
2017-12-19T23:51:30.937Z,99867.43
2017-12-19T23:53:59.391Z,99871.20
2017-12-19T23:56:27.736Z,99872.60
2017-12-19T23:58:56.188Z,99881.52
